Time;durP1;ratioP1;P1;durP2;ratioP2;P2;SDS_P1;SDS_P2;PMS_P1;PMS_P2;Temp;Humidity;BMP_temperature;BMP_pressure;BME280_temperature;BME280_humidity;BME280_pressure;Samples;Min_cycle;Max_cycle;Signal;HPM_P1;HPM_P2
2023/07/23 00:05:18;;;;;;;10.77;5.25;;;13.80;1.00;;;;;;10408158;28;20205;-78
2023/07/23 00:10:40;;;;;;;5.13;4.07;;;13.80;99.90;;;;;;10413091;28;20193;-78
2023/07/23 00:16:01;;;;;;;6.88;3.92;;;13.70;1.00;;;;;;10398355;28;20226;-79
2023/07/23 00:21:22;;;;;;;6.57;4.43;;;13.80;1.00;;;;;;10418402;28;20212;-79
2023/07/23 00:26:43;;;;;;;7.20;4.10;;;13.80;1.00;;;;;;10439210;28;20252;-78
2023/07/23 00:32:05;;;;;;;4.22;3.33;;;13.70;99.90;;;;;;11394445;23;20563;-77
2023/07/23 00:37:27;;;;;;;7.10;3.20;;;13.70;99.90;;;;;;10353871;28;20527;-79
2023/07/23 00:42:49;;;;;;;3.47;2.95;;;13.70;99.90;;;;;;10357496;28;20191;-78
2023/07/23 00:48:11;;;;;;;3.67;2.97;;;13.80;1.00;;;;;;10370347;28;20195;-77
2023/07/23 00:53:32;;;;;;;4.03;3.15;;;13.90;1.00;;;;;;10351903;28;20223;-77
2023/07/23 00:58:54;;;;;;;4.93;3.42;;;13.90;1.00;;;;;;10346265;28;20560;-78
2023/07/23 01:04:16;;;;;;;6.60;3.80;;;14.00;1.00;;;;;;10339629;28;20192;-80
2023/07/23 01:09:39;;;;;;;9.68;5.45;;;14.00;99.90;;;;;;10359725;28;20292;-79
2023/07/23 01:15:04;;;;;;;5.00;3.33;;;14.10;1.00;;;;;;10322717;28;20512;-79
2023/07/23 01:20:26;;;;;;;4.03;3.40;;;14.20;99.90;;;;;;10355478;28;20273;-80
2023/07/23 01:25:47;;;;;;;3.50;2.83;;;14.20;1.00;;;;;;10354346;28;20216;-78
2023/07/23 01:31:12;;;;;;;3.22;2.65;;;14.20;1.00;;;;;;10354695;28;20477;-78
2023/07/23 01:36:34;;;;;;;3.00;2.50;;;14.30;99.90;;;;;;10355004;28;20295;-82
2023/07/23 01:41:55;;;;;;;2.70;2.20;;;14.30;12.00;;;;;;10355034;28;20212;-77
2023/07/23 01:47:17;;;;;;;2.85;2.40;;;14.40;1.00;;;;;;10370776;28;20266;-78
2023/07/23 01:52:38;;;;;;;4.57;2.92;;;14.40;99.90;;;;;;10369657;28;20215;-77
2023/07/23 01:57:59;;;;;;;3.85;3.40;;;14.50;99.90;;;;;;10355571;28;20521;-78
2023/07/23 02:03:21;;;;;;;4.22;3.45;;;14.40;99.90;;;;;;10355585;28;20396;-79
2023/07/23 02:08:42;;;;;;;4.97;3.15;;;14.40;1.00;;;;;;10353831;28;20207;-78
2023/07/23 02:14:03;;;;;;;3.03;2.55;;;14.40;1.00;;;;;;10354762;28;20226;-82
2023/07/23 02:19:25;;;;;;;3.13;2.83;;;14.40;99.90;;;;;;10357440;28;20231;-77
2023/07/23 02:24:46;;;;;;;5.78;4.75;;;14.40;1.00;;;;;;10353948;28;20288;-77
2023/07/23 02:30:08;;;;;;;4.72;3.00;;;14.40;99.90;;;;;;10340208;28;20392;-77
2023/07/23 02:35:34;;;;;;;4.55;3.50;;;14.40;1.00;;;;;;10349030;28;20245;-77
2023/07/23 02:40:56;;;;;;;5.18;4.55;;;14.50;99.90;;;;;;10322587;28;20205;-77
2023/07/23 02:46:18;;;;;;;9.30;4.13;;;14.50;1.00;;;;;;10313552;28;20196;-77
2023/07/23 02:51:40;;;;;;;4.80;4.25;;;14.50;1.00;;;;;;10343386;28;20223;-78
2023/07/23 02:57:02;;;;;;;4.82;3.55;;;14.50;1.00;;;;;;10360732;28;20235;-78
2023/07/23 03:02:24;;;;;;;5.88;3.55;;;14.50;99.90;;;;;;10359160;28;20435;-77
2023/07/23 03:07:46;;;;;;;4.63;3.20;;;14.50;1.00;;;;;;10345794;28;20210;-79
2023/07/23 03:13:07;;;;;;;3.45;2.53;;;14.50;1.00;;;;;;10360604;28;20191;-79
2023/07/23 03:18:28;;;;;;;3.40;3.10;;;14.50;1.00;;;;;;10360399;28;20538;-78
2023/07/23 03:23:50;;;;;;;4.47;3.35;;;14.50;99.90;;;;;;10358434;28;20204;-78
2023/07/23 03:29:11;;;;;;;5.38;2.85;;;14.50;99.90;;;;;;10345746;28;20229;-80
2023/07/23 03:34:33;;;;;;;4.50;2.65;;;14.50;1.00;;;;;;10358409;28;20417;-78
2023/07/23 03:39:54;;;;;;;3.80;3.17;;;14.50;1.00;;;;;;10375430;28;20215;-77
2023/07/23 03:45:16;;;;;;;4.57;3.45;;;14.40;1.00;;;;;;10360417;28;20200;-81
2023/07/23 03:50:37;;;;;;;5.53;3.20;;;14.40;1.00;;;;;;10374023;28;20218;-77
2023/07/23 03:55:59;;;;;;;3.08;2.83;;;14.40;1.00;;;;;;10359903;28;20219;-80
2023/07/23 04:01:20;;;;;;;4.60;3.75;;;14.40;99.90;;;;;;10375538;28;20198;-86
2023/07/23 04:06:42;;;;;;;8.23;3.88;;;14.50;99.90;;;;;;10357596;28;20239;-86
2023/07/23 04:12:03;;;;;;;4.30;3.65;;;14.40;1.00;;;;;;10361196;28;20196;-86
2023/07/23 04:17:25;;;;;;;4.82;3.70;;;14.50;1.00;;;;;;10344369;28;20534;-77
2023/07/23 04:22:46;;;;;;;3.97;3.20;;;14.50;1.00;;;;;;10357727;28;20230;-87
2023/07/23 04:28:08;;;;;;;5.97;4.20;;;14.40;1.00;;;;;;10330094;28;20283;-80
2023/07/23 04:33:29;;;;;;;5.57;4.10;;;14.40;1.00;;;;;;10341967;28;20507;-79
2023/07/23 04:38:51;;;;;;;5.28;4.63;;;14.40;1.00;;;;;;10359184;28;20218;-78
2023/07/23 04:44:12;;;;;;;7.15;4.30;;;14.40;1.00;;;;;;10376542;28;20219;-78
2023/07/23 04:49:33;;;;;;;6.22;3.83;;;14.40;99.90;;;;;;10368008;28;20276;-76
2023/07/23 04:54:54;;;;;;;5.78;4.95;;;14.30;99.90;;;;;;10343331;28;20194;-77
2023/07/23 05:00:16;;;;;;;5.47;4.45;;;14.30;99.90;;;;;;10357079;28;20222;-78
2023/07/23 05:05:42;;;;;;;4.28;3.88;;;14.30;1.00;;;;;;10356402;28;20523;-77
2023/07/23 05:11:04;;;;;;;4.55;3.95;;;14.30;99.90;;;;;;10350529;28;20224;-78
2023/07/23 05:16:25;;;;;;;5.57;4.13;;;14.40;99.90;;;;;;10355736;28;20256;-77
2023/07/23 05:21:46;;;;;;;6.95;4.28;;;14.40;1.00;;;;;;10340932;28;20507;-77
2023/07/23 05:27:07;;;;;;;6.22;4.18;;;14.40;1.00;;;;;;10356672;28;20204;-85
2023/07/23 05:32:29;;;;;;;4.07;3.65;;;14.60;1.00;;;;;;10357791;28;20246;-83
2023/07/23 05:37:50;;;;;;;7.05;4.07;;;14.70;99.90;;;;;;10354331;28;20231;-76
2023/07/23 05:43:17;;;;;;;5.50;4.63;;;14.80;99.90;;;;;;10346488;28;20271;-79
2023/07/23 05:48:39;;;;;;;5.88;5.00;;;15.00;99.90;;;;;;10354879;28;20279;-77
2023/07/23 05:54:00;;;;;;;6.72;5.50;;;15.20;85.20;;;;;;10370267;28;20198;-77
2023/07/23 05:59:22;;;;;;;6.15;4.55;;;15.30;99.90;;;;;;10353996;28;20228;-76
2023/07/23 06:04:43;;;;;;;4.07;3.67;;;15.30;99.90;;;;;;10367960;28;20223;-77
2023/07/23 06:10:05;;;;;;;5.43;4.40;;;15.40;93.50;;;;;;10354781;28;20198;-77
2023/07/23 06:15:26;;;;;;;5.35;4.72;;;15.40;99.90;;;;;;10353693;28;20206;-77
2023/07/23 06:20:48;;;;;;;5.85;4.45;;;15.50;1.00;;;;;;10354362;28;20211;-80
2023/07/23 06:26:09;;;;;;;8.10;5.18;;;15.60;1.00;;;;;;10353801;28;20244;-77
2023/07/23 06:31:31;;;;;;;5.25;4.70;;;15.70;1.00;;;;;;10362331;28;20248;-83
2023/07/23 06:36:52;;;;;;;5.80;5.07;;;15.90;1.00;;;;;;10362563;28;20224;-77
2023/07/23 06:42:13;;;;;;;6.78;5.57;;;15.90;1.00;;;;;;10369783;28;20223;-77
2023/07/23 06:47:35;;;;;;;7.13;5.65;;;15.90;1.00;;;;;;10362132;28;20276;-77
2023/07/23 06:52:56;;;;;;;10.32;5.82;;;15.90;1.00;;;;;;10361144;28;20262;-78
2023/07/23 06:58:18;;;;;;;6.35;5.38;;;16.00;99.90;;;;;;10329494;28;20315;-86
2023/07/23 07:03:41;;;;;;;8.50;6.00;;;16.10;1.00;;;;;;10360812;28;20200;-86
2023/07/23 07:09:03;;;;;;;7.03;5.72;;;16.30;99.90;;;;;;10346435;28;20214;-84
2023/07/23 07:14:24;;;;;;;11.23;6.28;;;16.30;20.80;;;;;;10360943;28;20431;-81
2023/07/23 07:19:46;;;;;;;5.65;5.05;;;16.20;1.00;;;;;;10345471;28;20238;-77
2023/07/23 07:25:07;;;;;;;7.80;5.45;;;16.20;99.90;;;;;;10376638;28;20331;-79
2023/07/23 07:30:29;;;;;;;8.07;5.95;;;16.10;99.90;;;;;;10375598;28;20243;-88
2023/07/23 07:35:56;;;;;;;5.78;4.75;;;16.00;1.00;;;;;;10357903;28;20559;-80
2023/07/23 07:41:17;;;;;;;7.18;5.43;;;15.90;99.90;;;;;;10344277;28;20272;-86
2023/07/23 07:46:39;;;;;;;6.95;6.25;;;15.90;99.90;;;;;;10319089;28;20251;-77
2023/07/23 07:52:00;;;;;;;9.07;5.32;;;15.80;99.90;;;;;;10373364;28;20297;-79
2023/07/23 07:57:22;;;;;;;6.68;6.05;;;15.70;1.00;;;;;;10331644;28;20533;-81
2023/07/23 08:02:44;;;;;;;7.78;6.25;;;15.80;54.70;;;;;;10359398;28;20199;-81
2023/07/23 08:08:07;;;;;;;6.78;5.88;;;15.90;1.00;;;;;;10357695;28;20204;-86
2023/07/23 08:13:29;;;;;;;6.00;5.40;;;16.00;50.10;;;;;;10358786;28;20418;-86
2023/07/23 08:18:50;;;;;;;7.65;5.95;;;16.10;99.90;;;;;;10370940;28;20299;-80
2023/07/23 08:24:12;;;;;;;9.68;7.18;;;16.10;1.00;;;;;;10358403;28;20292;-80
2023/07/23 08:29:38;;;;;;;9.82;6.47;;;16.20;1.00;;;;;;10360364;28;20204;-85
2023/07/23 08:34:59;;;;;;;9.43;6.90;;;16.30;99.90;;;;;;10372341;28;20243;-86
2023/07/23 08:40:21;;;;;;;9.15;6.72;;;16.30;1.00;;;;;;10371051;28;20263;-77
2023/07/23 08:46:13;;;;;;;11.10;6.63;;;16.30;1.00;;;;;;10303094;28;20228;-85
2023/07/23 08:51:43;;;;;;;9.00;6.78;;;16.30;1.00;;;;;;10355083;28;20208;-84
2023/07/23 08:57:05;;;;;;;8.25;6.88;;;16.70;99.90;;;;;;10357744;28;20225;-79
2023/07/23 09:02:27;;;;;;;13.13;7.65;;;17.60;1.00;;;;;;10357057;28;20199;-78
2023/07/23 09:07:48;;;;;;;7.05;6.10;;;19.00;1.00;;;;;;10355724;28;20276;-78
2023/07/23 09:13:16;;;;;;;8.82;5.82;;;19.60;99.90;;;;;;10369764;28;20539;-80
2023/07/23 09:18:40;;;;;;;7.45;5.70;;;19.70;99.90;;;;;;10354961;28;20280;-77
2023/07/23 09:24:04;;;;;;;8.32;5.90;;;19.40;99.90;;;;;;10371620;28;20217;-79
2023/07/23 09:29:35;;;;;;;6.57;4.97;;;19.70;99.90;;;;;;10357804;28;20193;-79
2023/07/23 09:35:00;;;;;;;7.13;5.70;;;20.50;1.00;;;;;;10356327;28;20296;-79
2023/07/23 09:40:21;;;;;;;6.82;4.97;;;20.90;1.00;;;;;;10354490;28;20276;-85
2023/07/23 09:45:43;;;;;;;5.20;4.53;;;20.90;1.00;;;;;;10341587;28;20229;-82
2023/07/23 09:51:10;;;;;;;7.00;4.90;;;20.80;1.00;;;;;;10355156;28;20198;-79
2023/07/23 09:56:36;;;;;;;8.43;5.50;;;21.30;1.00;;;;;;10370320;28;20240;-80
2023/07/23 10:01:58;;;;;;;5.75;4.47;;;21.10;1.00;;;;;;10352864;28;20244;-78
2023/07/23 10:07:21;;;;;;;6.35;4.15;;;21.70;1.00;;;;;;10353573;28;20503;-78
2023/07/23 10:12:42;;;;;;;5.00;4.15;;;22.10;1.00;;;;;;10353420;28;20198;-79
2023/07/23 10:18:04;;;;;;;8.43;5.00;;;21.90;1.00;;;;;;10339046;28;20217;-79
2023/07/23 10:23:27;;;;;;;7.10;5.07;;;22.30;1.00;;;;;;10341089;28;20190;-82
2023/07/23 10:28:58;;;;;;;5.40;4.55;;;22.10;1.00;;;;;;10314169;28;20198;-78
2023/07/23 10:34:22;;;;;;;5.20;4.70;;;21.70;1.00;;;;;;10348713;28;20230;-78
2023/07/23 10:39:46;;;;;;;7.93;4.38;;;21.80;1.00;;;;;;10368379;28;20397;-79
2023/07/23 10:45:22;;;;;;;7.43;4.35;;;22.40;1.00;;;;;;10316987;28;20213;-79
2023/07/23 10:51:02;;;;;;;6.03;4.70;;;22.30;1.00;;;;;;10358621;28;20273;-79
2023/07/23 10:56:34;;;;;;;4.95;3.97;;;22.20;1.00;;;;;;10354150;28;20214;-78
2023/07/23 11:01:55;;;;;;;4.53;4.10;;;21.90;1.00;;;;;;10356107;28;20198;-82
2023/07/23 11:07:31;;;;;;;8.52;5.05;;;21.50;1.00;;;;;;10367110;28;20264;-78
2023/07/23 11:12:54;;;;;;;5.68;4.88;;;21.50;1.00;;;;;;10355073;28;20206;-78
2023/07/23 11:18:15;;;;;;;4.68;3.65;;;22.50;1.00;;;;;;10359942;28;20305;-78
2023/07/23 11:23:37;;;;;;;5.32;4.10;;;22.90;99.90;;;;;;10360970;28;20487;-80
2023/07/23 11:28:58;;;;;;;5.00;4.13;;;22.30;99.90;;;;;;10360814;28;20511;-80
2023/07/23 11:34:21;;;;;;;6.75;3.80;;;21.90;99.90;;;;;;10358148;28;20308;-78
2023/07/23 11:39:50;;;;;;;6.85;4.38;;;21.80;99.90;;;;;;10360384;28;20221;-80
2023/07/23 11:45:14;;;;;;;5.82;3.85;;;21.60;99.90;;;;;;10322190;28;20274;-83
2023/07/23 11:50:35;;;;;;;8.05;4.03;;;22.10;99.90;;;;;;10371107;28;20253;-81
2023/07/23 11:56:05;;;;;;;7.97;4.60;;;22.50;99.90;;;;;;10359694;28;20205;-78
2023/07/23 12:01:26;;;;;;;4.68;4.18;;;22.50;99.90;;;;;;10374903;28;20590;-83
2023/07/23 12:06:48;;;;;;;7.47;4.05;;;22.40;99.90;;;;;;10358071;28;20197;-81
2023/07/23 12:12:12;;;;;;;4.95;4.15;;;22.40;99.90;;;;;;10358199;28;20229;-79
2023/07/23 12:17:37;;;;;;;5.35;3.83;;;23.10;99.90;;;;;;10370677;28;20218;-78
2023/07/23 12:23:01;;;;;;;5.32;4.00;;;23.20;99.90;;;;;;10358923;28;20201;-78
2023/07/23 12:28:27;;;;;;;9.52;3.83;;;23.00;99.90;;;;;;10343108;28;20213;-77
2023/07/23 12:33:48;;;;;;;4.95;3.67;;;22.50;99.90;;;;;;10354488;28;20491;-78
2023/07/23 12:39:10;;;;;;;4.80;3.70;;;22.50;99.90;;;;;;10373308;28;20226;-79
2023/07/23 12:44:32;;;;;;;4.22;3.25;;;22.80;99.90;;;;;;10373280;28;20209;-80
2023/07/23 12:49:59;;;;;;;3.88;3.30;;;22.80;99.90;;;;;;10371017;28;20209;-81
2023/07/23 12:55:20;;;;;;;3.95;3.35;;;22.70;99.90;;;;;;10357454;28;20422;-81
2023/07/23 13:00:41;;;;;;;3.35;3.05;;;22.50;99.90;;;;;;10371692;28;20578;-79
2023/07/23 13:06:02;;;;;;;3.83;3.42;;;22.20;99.90;;;;;;10337574;28;20252;-78
2023/07/23 13:11:24;;;;;;;5.35;3.83;;;21.90;99.90;;;;;;10355616;28;20198;-80
2023/07/23 13:16:45;;;;;;;4.68;3.60;;;21.50;99.90;;;;;;10341090;28;20233;-81
2023/07/23 13:22:07;;;;;;;5.05;3.60;;;21.20;1.00;;;;;;10327851;28;20213;-85
2023/07/23 13:27:28;;;;;;;4.93;3.95;;;;;;;;;;10341229;28;20272;-84
2023/07/23 13:32:50;;;;;;;5.05;3.97;;;;;;;;;;10354923;28;20234;-80
2023/07/23 13:38:12;;;;;;;4.97;3.58;;;21.00;37.90;;;;;;10354752;28;20549;-79
2023/07/23 13:43:33;;;;;;;4.50;3.53;;;20.50;99.90;;;;;;10327517;28;20228;-77
2023/07/23 13:48:57;;;;;;;4.90;3.95;;;;;;;;;;10354985;28;20226;-82
2023/07/23 13:54:18;;;;;;;6.60;4.32;;;20.20;1.00;;;;;;10341404;28;20204;-82
2023/07/23 13:59:39;;;;;;;4.65;3.70;;;19.70;99.90;;;;;;10338526;28;20233;-77
2023/07/23 14:05:00;;;;;;;5.43;4.15;;;19.40;99.90;;;;;;10340983;28;20195;-81
2023/07/23 14:10:22;;;;;;;5.60;4.32;;;19.20;1.00;;;;;;10300340;28;20252;-84
2023/07/23 14:15:43;;;;;;;4.38;3.97;;;19.10;99.90;;;;;;10343708;28;20237;-77
2023/07/23 14:21:05;;;;;;;7.43;4.20;;;19.00;1.00;;;;;;10353580;28;20602;-78
2023/07/23 14:26:27;;;;;;;5.43;4.65;;;18.90;99.90;;;;;;10354311;28;20417;-83
2023/07/23 14:31:48;;;;;;;7.72;4.68;;;;;;;;;;10368066;28;20241;-79
2023/07/23 14:37:10;;;;;;;5.35;4.45;;;;;;;;;;10354460;28;20217;-79
2023/07/23 14:42:31;;;;;;;4.88;4.32;;;;;;;;;;10352721;28;20209;-78
2023/07/23 14:47:53;;;;;;;6.60;5.47;;;;;;;;;;10368986;28;20256;-79
2023/07/23 14:53:15;;;;;;;6.35;4.32;;;;;;;;;;10363964;28;20251;-83
2023/07/23 14:58:37;;;;;;;4.95;4.22;;;;;;;;;;10362281;28;20221;-78
2023/07/23 15:03:58;;;;;;;6.15;4.68;;;;;;;;;;10354438;28;20198;-80
2023/07/23 15:09:20;;;;;;;6.80;4.50;;;;;;;;;;10377056;28;20212;-78
2023/07/23 15:14:42;;;;;;;5.30;4.40;;;;;;;;;;10362198;28;20205;-78
2023/07/23 15:20:04;;;;;;;5.18;4.55;;;;;;;;;;10331151;28;20607;-78
2023/07/23 15:25:27;;;;;;;5.22;4.72;;;;;;;;;;10333517;28;20278;-77
2023/07/23 15:30:48;;;;;;;5.28;4.28;;;;;;;;;;10340474;28;20281;-82
2023/07/23 15:36:10;;;;;;;4.55;3.95;;;;;;;;;;10359780;28;20241;-78
2023/07/23 15:41:32;;;;;;;6.10;4.40;;;;;;;;;;10373280;28;20538;-78
2023/07/23 15:46:53;;;;;;;6.13;4.47;;;;;;;;;;10374217;28;20208;-84
2023/07/23 15:52:15;;;;;;;9.27;4.95;;;;;;;;;;10358982;28;20236;-79
2023/07/23 15:57:36;;;;;;;5.35;4.20;;;;;;;;;;10360125;28;20226;-82
2023/07/23 16:02:58;;;;;;;5.47;3.72;;;;;;;;;;10369915;28;20388;-82
2023/07/23 16:08:21;;;;;;;6.38;4.68;;;;;;;;;;10359537;28;20245;-82
2023/07/23 16:13:43;;;;;;;4.55;4.15;;;;;;;;;;10374298;28;20198;-79
2023/07/23 16:19:05;;;;;;;5.32;4.45;;;;;;;;;;10356750;28;20268;-77
2023/07/23 16:24:26;;;;;;;5.00;4.30;;;;;;;;;;10371589;28;20193;-79
2023/07/23 16:29:47;;;;;;;3.78;3.47;;;;;;;;;;10358340;28;20205;-77
2023/07/23 16:35:10;;;;;;;5.35;4.38;;;;;;;;;;10357192;28;20334;-77
2023/07/23 16:40:32;;;;;;;7.07;5.05;;;;;;;;;;10357884;28;20245;-78
2023/07/23 16:45:54;;;;;;;7.32;5.30;;;;;;;;;;10357999;28;20488;-83
2023/07/23 16:51:16;;;;;;;5.53;4.63;;;;;;;;;;10352604;28;20244;-82
2023/07/23 16:56:37;;;;;;;5.82;5.22;;;;;;;;;;10352163;28;20245;-79
2023/07/23 17:01:59;;;;;;;7.07;5.28;;;;;;;;;;10353723;28;20214;-77
2023/07/23 17:07:20;;;;;;;8.77;5.55;;;;;;;;;;10356302;28;20393;-79
2023/07/23 17:12:42;;;;;;;7.45;5.50;;;;;;;;;;10356295;28;20199;-78
2023/07/23 17:18:03;;;;;;;5.55;5.00;;;;;;;;;;10357055;28;20221;-78
2023/07/23 17:23:26;;;;;;;7.65;6.25;;;;;;;;;;10320788;28;20518;-78
2023/07/23 17:28:49;;;;;;;7.28;5.88;;;;;;;;;;10370960;28;20228;-77
2023/07/23 17:34:10;;;;;;;8.20;5.57;;;;;;;;;;10355802;28;20229;-78
2023/07/23 17:39:32;;;;;;;8.20;6.40;;;;;;;;;;10354772;28;20325;-80
2023/07/23 17:44:53;;;;;;;7.75;6.95;;;;;;;;;;10349879;28;20201;-78
2023/07/23 17:50:18;;;;;;;8.80;6.15;;;;;;;;;;10351686;28;20376;-77
2023/07/23 17:55:40;;;;;;;8.77;6.53;;;;;;;;;;10348397;28;20225;-77
2023/07/23 18:01:03;;;;;;;9.35;6.57;;;;;;;;;;10353189;28;20276;-78
2023/07/23 18:06:29;;;;;;;9.30;6.60;;;;;;;;;;10325083;28;20209;-78
2023/07/23 18:11:51;;;;;;;12.40;8.15;;;18.00;99.90;;;;;;10369345;28;20201;-77
2023/07/23 18:17:12;;;;;;;13.77;8.90;;;18.00;1.00;;;;;;10348264;28;20260;-77
2023/07/23 18:22:34;;;;;;;14.40;11.63;;;17.80;1.00;;;;;;10363392;28;20245;-77
2023/07/23 18:27:55;;;;;;;11.68;9.35;;;17.70;1.00;;;;;;10338927;28;20193;-78
2023/07/23 18:33:16;;;;;;;11.30;8.57;;;17.60;1.00;;;;;;10350409;28;20233;-78
2023/07/23 18:38:37;;;;;;;8.55;7.55;;;17.60;1.00;;;;;;10354356;28;20235;-77
2023/07/23 18:43:59;;;;;;;11.45;7.25;;;17.60;1.00;;;;;;10354147;28;20276;-80
2023/07/23 18:49:20;;;;;;;8.00;6.57;;;17.40;1.00;;;;;;10352478;28;20201;-78
2023/07/23 18:54:41;;;;;;;8.80;6.35;;;17.30;1.00;;;;;;10352979;28;20201;-77
2023/07/23 19:00:06;;;;;;;9.02;5.65;;;17.30;1.00;;;;;;10351761;28;20261;-78
2023/07/23 19:05:27;;;;;;;7.38;6.20;;;17.20;1.00;;;;;;10337543;28;20198;-84
2023/07/23 19:10:48;;;;;;;8.48;6.60;;;17.20;1.00;;;;;;10351883;28;20287;-79
2023/07/23 19:16:10;;;;;;;9.10;7.40;;;17.10;14.40;;;;;;10349857;28;20208;-77
2023/07/23 19:21:31;;;;;;;9.18;7.07;;;17.10;45.00;;;;;;10353454;28;20244;-77
2023/07/23 19:26:52;;;;;;;9.02;6.78;;;17.20;65.60;;;;;;10353349;28;20199;-79
2023/07/23 19:32:13;;;;;;;8.25;7.32;;;17.20;49.50;;;;;;10350471;28;20322;-85
2023/07/23 19:37:34;;;;;;;10.90;7.43;;;17.10;31.50;;;;;;10359299;28;20410;-81
2023/07/23 19:42:55;;;;;;;8.18;6.40;;;17.10;92.30;;;;;;10360384;28;20503;-81
2023/07/23 19:48:17;;;;;;;10.93;7.00;;;17.10;45.00;;;;;;10374360;28;20377;-77
2023/07/23 19:53:38;;;;;;;7.95;6.40;;;17.20;26.30;;;;;;10358927;28;20193;-79
2023/07/23 19:58:59;;;;;;;8.75;5.30;;;17.20;4.10;;;;;;10357514;28;20286;-78
2023/07/23 20:04:21;;;;;;;10.75;6.13;;;17.20;1.00;;;;;;10362925;28;20201;-77
2023/07/23 20:09:42;;;;;;;6.93;5.53;;;17.10;1.00;;;;;;10374108;28;20209;-78
2023/07/23 20:15:05;;;;;;;6.65;5.60;;;17.10;1.00;;;;;;10358873;28;20197;-84
2023/07/23 20:20:26;;;;;;;8.07;5.88;;;17.20;7.40;;;;;;10357680;28;20545;-77
2023/07/23 20:25:54;;;;;;;12.32;7.03;;;17.20;28.80;;;;;;10374646;28;20204;-80
2023/07/23 20:31:19;;;;;;;15.60;7.20;;;17.10;10.50;;;;;;10357854;28;20285;-86
2023/07/23 20:36:42;;;;;;;17.92;7.72;;;17.10;69.50;;;;;;10371962;28;20201;-77
2023/07/23 20:42:04;;;;;;;6.90;5.50;;;17.20;43.70;;;;;;10358516;28;20252;-77
2023/07/23 20:47:25;;;;;;;7.97;6.15;;;17.10;26.20;;;;;;10346208;28;20226;-77
2023/07/23 20:52:46;;;;;;;10.02;6.97;;;17.00;12.40;;;;;;10372859;28;20208;-79
2023/07/23 20:58:08;;;;;;;10.10;6.40;;;17.00;40.80;;;;;;10356655;28;20236;-77
2023/07/23 21:03:30;;;;;;;7.78;6.50;;;16.90;1.00;;;;;;10355813;28;20207;-82
2023/07/23 21:08:51;;;;;;;9.00;5.80;;;16.90;14.20;;;;;;10356700;28;20201;-80
2023/07/23 21:14:12;;;;;;;9.43;7.10;;;16.90;55.80;;;;;;10356413;28;20391;-80
2023/07/23 21:19:34;;;;;;;14.02;6.70;;;16.80;18.60;;;;;;10340587;28;20229;-77
2023/07/23 21:24:55;;;;;;;6.95;6.25;;;16.80;74.60;;;;;;10328450;28;20205;-79
2023/07/23 21:30:17;;;;;;;9.57;6.30;;;16.80;90.70;;;;;;10370973;28;20404;-79
2023/07/23 21:35:43;;;;;;;8.63;6.80;;;16.70;18.10;;;;;;10352479;28;20240;-78
2023/07/23 21:41:04;;;;;;;9.07;6.57;;;16.70;56.40;;;;;;10356216;28;20526;-78
2023/07/23 21:46:25;;;;;;;10.70;7.32;;;16.70;59.70;;;;;;10355228;28;20271;-77
2023/07/23 21:51:46;;;;;;;8.95;6.60;;;16.60;17.90;;;;;;10354356;28;20210;-80
2023/07/23 21:57:08;;;;;;;9.10;6.47;;;16.50;47.20;;;;;;10354689;28;20376;-80
2023/07/23 22:02:29;;;;;;;9.52;6.40;;;16.60;99.90;;;;;;10353194;28;20199;-78
2023/07/23 22:07:50;;;;;;;7.15;6.03;;;16.60;30.60;;;;;;10370369;28;20283;-82
2023/07/23 22:13:11;;;;;;;6.72;6.03;;;16.60;51.40;;;;;;10355399;28;20293;-79
2023/07/23 22:18:33;;;;;;;8.18;6.22;;;16.60;40.70;;;;;;10352371;28;20252;-80
2023/07/23 22:23:54;;;;;;;8.90;6.72;;;16.60;98.40;;;;;;10354330;28;20280;-78
2023/07/23 22:29:16;;;;;;;9.10;6.60;;;16.60;59.30;;;;;;10370244;28;20193;-81
2023/07/23 22:34:37;;;;;;;8.68;7.32;;;16.60;66.50;;;;;;10314523;28;20233;-87
2023/07/23 22:39:58;;;;;;;6.57;5.85;;;16.60;69.60;;;;;;10313448;28;20226;-77
2023/07/23 22:45:20;;;;;;;6.00;5.18;;;16.60;99.80;;;;;;10383340;28;20510;-78
2023/07/23 22:50:41;;;;;;;7.18;4.97;;;16.70;93.20;;;;;;10369462;28;20211;-79
2023/07/23 22:56:10;;;;;;;6.22;5.30;;;16.60;87.10;;;;;;10354082;28;20190;-77
2023/07/23 23:01:31;;;;;;;8.00;6.28;;;16.60;93.40;;;;;;10352674;28;20236;-77
2023/07/23 23:06:52;;;;;;;6.15;5.25;;;16.60;78.30;;;;;;10369199;28;20204;-78
2023/07/23 23:12:14;;;;;;;7.75;5.22;;;16.60;76.50;;;;;;10359625;28;20550;-78
2023/07/23 23:17:35;;;;;;;6.90;4.75;;;16.50;61.50;;;;;;10359985;28;20225;-77
2023/07/23 23:22:56;;;;;;;8.95;5.45;;;16.50;89.40;;;;;;10361211;28;20226;-79
2023/07/23 23:28:17;;;;;;;6.75;4.90;;;16.40;95.60;;;;;;10373251;28;20209;-77
2023/07/23 23:33:38;;;;;;;7.43;5.60;;;16.40;99.90;;;;;;10320482;28;20238;-80
2023/07/23 23:39:00;;;;;;;7.00;5.57;;;16.40;99.90;;;;;;10332978;28;20235;-79
2023/07/23 23:44:21;;;;;;;8.30;6.53;;;16.40;99.90;;;;;;10351116;28;20221;-78
2023/07/23 23:49:42;;;;;;;6.13;5.47;;;16.40;99.90;;;;;;10372055;28;20204;-77
2023/07/23 23:55:04;;;;;;;6.53;5.82;;;16.40;99.90;;;;;;10383993;28;20213;-80
